Time;durP1;ratioP1;P1;durP2;ratioP2;P2;SDS_P1;SDS_P2;PMS_P1;PMS_P2;Temp;Humidity;BMP_temperature;BMP_pressure;BME280_temperature;BME280_humidity;BME280_pressure;Samples;Min_cycle;Max_cycle;Signal;HPM_P1;HPM_P2
2022/03/19 00:00:58;;;;;;;;;;;;;;;17.31;58.86;100171.34;2092682;28;20302;-58
2022/03/19 00:02:00;;;;;;;;;;;;;;;17.31;58.60;100174.03;2091718;28;19928;-56
2022/03/19 00:03:02;;;;;;;;;;;;;;;17.31;58.73;100171.34;2091728;28;20568;-56
2022/03/19 00:04:03;;;;;;;;;;;;;;;17.29;58.70;100171.47;2089879;28;19924;-57
2022/03/19 00:05:05;;;;;;;;;;;;;;;17.29;58.72;100170.66;2088504;28;20295;-55
2022/03/19 00:06:07;;;;;;;;;;;;;;;17.29;58.77;100170.66;2091108;28;19932;-55
2022/03/19 00:07:07;;;;;;;;;;;;;;;17.29;58.72;100167.97;2090771;28;19935;-55
2022/03/19 00:08:09;;;;;;;;;;;;;;;17.29;58.71;100167.97;2090887;28;19934;-56
2022/03/19 00:09:09;;;;;;;;;;;;;;;17.27;58.76;100172.63;2091669;28;20371;-58
2022/03/19 00:10:13;;;;;;;;;;;;;;;17.27;58.89;100180.69;2091273;28;19935;-55
2022/03/19 00:11:13;;;;;;;;;;;;;;;17.26;58.76;100179.84;2087969;28;20850;-57
2022/03/19 00:12:15;;;;;;;;;;;;;;;17.25;58.75;100174.66;2091271;28;19925;-57
2022/03/19 00:13:17;;;;;;;;;;;;;;;17.25;58.75;100171.97;2090297;28;19928;-57
2022/03/19 00:14:19;;;;;;;;;;;;;;;17.25;58.89;100171.97;2091075;28;20368;-54
2022/03/19 00:15:20;;;;;;;;;;;;;;;17.25;58.84;100174.66;2089522;28;19932;-57
2022/03/19 00:16:21;;;;;;;;;;;;;;;17.24;58.75;100179.16;2090060;28;19924;-55
2022/03/19 00:17:23;;;;;;;;;;;;;;;17.24;58.66;100179.16;2089105;28;19928;-56
2022/03/19 00:18:25;;;;;;;;;;;;;;;17.22;58.71;100166.91;2091413;28;20668;-57
2022/03/19 00:19:27;;;;;;;;;;;;;;;17.22;58.76;100172.25;2091302;28;20807;-57
2022/03/19 00:20:28;;;;;;;;;;;;;;;17.22;58.67;100177.63;2091181;28;19928;-56
2022/03/19 00:21:29;;;;;;;;;;;;;;;17.22;58.66;100177.63;2090776;28;19928;-57
2022/03/19 00:22:31;;;;;;;;;;;;;;;17.20;58.81;100175.97;2092385;28;19964;-56
2022/03/19 00:23:31;;;;;;;;;;;;;;;17.20;58.74;100183.16;2088223;28;19989;-53
2022/03/19 00:24:33;;;;;;;;;;;;;;;17.19;58.48;100179.66;2092499;28;19928;-57
2022/03/19 00:25:34;;;;;;;;;;;;;;;17.18;58.83;100174.44;2091251;28;20015;-56
2022/03/19 00:26:36;;;;;;;;;;;;;;;17.18;58.74;100177.94;2091164;28;19931;-56
2022/03/19 00:27:36;;;;;;;;;;;;;;;17.18;58.78;100180.63;2091745;28;20015;-55
2022/03/19 00:28:38;;;;;;;;;;;;;;;17.16;58.72;100177.28;2091855;28;20015;-58
2022/03/19 00:29:39;;;;;;;;;;;;;;;17.17;58.74;100178.13;2089875;28;19940;-57
2022/03/19 00:30:40;;;;;;;;;;;;;;;17.15;58.83;100180.94;2091707;28;19932;-57
2022/03/19 00:31:41;;;;;;;;;;;;;;;17.15;58.94;100180.09;2088876;28;19940;-57
2022/03/19 00:32:44;;;;;;;;;;;;;;;17.14;58.68;100184.63;2090718;28;19928;-57
2022/03/19 00:33:44;;;;;;;;;;;;;;;17.15;58.77;100183.63;2091525;28;19969;-57
2022/03/19 00:34:46;;;;;;;;;;;;;;;17.13;58.88;100185.66;2091494;28;19936;-56
2022/03/19 00:35:47;;;;;;;;;;;;;;;17.13;58.76;100180.28;2091215;28;19932;-55
2022/03/19 00:36:49;;;;;;;;;;;;;;;17.13;58.83;100184.78;2089086;28;19929;-56
2022/03/19 00:37:51;;;;;;;;;;;;;;;17.12;58.80;100186.63;2091849;28;20047;-56
2022/03/19 00:38:54;;;;;;;;;;;;;;;17.12;58.69;100185.78;2090822;28;20069;-55
2022/03/19 00:39:54;;;;;;;;;;;;;;;17.12;58.90;100177.75;2092067;28;19929;-57
2022/03/19 00:40:56;;;;;;;;;;;;;;;17.10;58.73;100177.88;2090071;28;20857;-57
2022/03/19 00:41:56;;;;;;;;;;;;;;;17.09;58.93;100178.88;2090952;28;20023;-58
2022/03/19 00:42:58;;;;;;;;;;;;;;;17.09;58.91;100181.56;2091353;28;19929;-55
2022/03/19 00:43:58;;;;;;;;;;;;;;;17.09;58.87;100181.56;2091418;28;19924;-56
2022/03/19 00:45:00;;;;;;;;;;;;;;;17.08;58.98;100179.91;2091559;28;20590;-57
2022/03/19 00:46:01;;;;;;;;;;;;;;;17.08;58.82;100179.06;2091204;28;19924;-55
2022/03/19 00:47:02;;;;;;;;;;;;;;;17.07;58.95;100183.56;2090590;28;20438;-56
2022/03/19 00:48:05;;;;;;;;;;;;;;;17.07;58.93;100182.72;2092204;28;19934;-56
2022/03/19 00:49:06;;;;;;;;;;;;;;;17.06;58.87;100181.88;2091945;28;20589;-60
2022/03/19 00:50:08;;;;;;;;;;;;;;;17.04;58.85;100175.84;2090884;28;19939;-56
2022/03/19 00:51:09;;;;;;;;;;;;;;;17.05;58.88;100174.00;2092442;28;19940;-57
2022/03/19 00:52:10;;;;;;;;;;;;;;;17.05;58.88;100177.53;2091381;28;19960;-57
2022/03/19 00:53:11;;;;;;;;;;;;;;;17.04;58.79;100183.88;2090788;28;19974;-56
2022/03/19 00:54:15;;;;;;;;;;;;;;;17.04;58.83;100177.69;2092205;28;19932;-54
2022/03/19 00:55:16;;;;;;;;;;;;;;;17.03;58.88;100170.66;2091686;28;19929;-54
2022/03/19 00:56:17;;;;;;;;;;;;;;;17.03;58.82;100176.00;2092382;28;20243;-57
2022/03/19 00:57:18;;;;;;;;;;;;;;;17.02;58.84;100174.31;2091941;28;19981;-57
2022/03/19 00:58:19;;;;;;;;;;;;;;;17.02;58.88;100174.31;2090679;28;19933;-57
2022/03/19 00:59:20;;;;;;;;;;;;;;;17.00;58.88;100174.47;2091215;28;20578;-57
2022/03/19 01:00:24;;;;;;;;;;;;;;;16.99;58.90;100167.41;2091350;28;19932;-59
2022/03/19 01:01:24;;;;;;;;;;;;;;;16.99;58.90;100167.41;2087659;28;19943;-57
2022/03/19 01:02:26;;;;;;;;;;;;;;;16.99;58.83;100164.72;2094518;28;19925;-57
2022/03/19 01:03:28;;;;;;;;;;;;;;;16.97;58.87;100166.75;2088782;28;19932;-58
2022/03/19 01:04:29;;;;;;;;;;;;;;;16.96;58.78;100165.88;2089075;28;19925;-56
2022/03/19 01:05:30;;;;;;;;;;;;;;;16.96;58.83;100159.69;2089587;28;20001;-56
2022/03/19 01:06:32;;;;;;;;;;;;;;;16.95;58.89;100160.69;2091264;28;20459;-56
2022/03/19 01:07:32;;;;;;;;;;;;;;;16.95;58.87;100163.38;2085173;28;19935;-56
2022/03/19 01:08:34;;;;;;;;;;;;;;;16.94;58.81;100170.56;2091464;28;19929;-58
2022/03/19 01:09:34;;;;;;;;;;;;;;;16.93;58.91;100162.69;2088950;28;19930;-57
2022/03/19 01:10:36;;;;;;;;;;;;;;;16.93;58.83;100162.69;2089554;28;20033;-56
2022/03/19 01:11:37;;;;;;;;;;;;;;;16.92;59.00;100161.84;2090236;28;19929;-55
2022/03/19 01:12:38;;;;;;;;;;;;;;;16.91;58.93;100162.00;2090957;28;19925;-56
2022/03/19 01:13:39;;;;;;;;;;;;;;;16.91;58.88;100165.53;2083998;28;19935;-57
2022/03/19 01:14:40;;;;;;;;;;;;;;;16.91;58.91;100162.00;2090463;28;19936;-57
2022/03/19 01:15:42;;;;;;;;;;;;;;;16.90;58.95;100158.47;2089215;28;20527;-57
2022/03/19 01:16:42;;;;;;;;;;;;;;;16.89;58.99;100159.47;2090673;28;20542;-56
2022/03/19 01:17:44;;;;;;;;;;;;;;;16.89;58.86;100158.66;2090608;28;19929;-56
2022/03/19 01:18:47;;;;;;;;;;;;;;;16.88;58.97;100156.94;2089948;28;19932;-56
2022/03/19 01:19:54;;;;;;;;;;;;;;;16.86;58.88;100154.44;2087819;28;19968;-57
2022/03/19 01:20:56;;;;;;;;;;;;;;;16.87;58.97;100155.25;2090085;28;20011;-56
2022/03/19 01:21:56;;;;;;;;;;;;;;;16.86;58.92;100150.91;2090131;28;20302;-56
2022/03/19 01:22:58;;;;;;;;;;;;;;;16.86;58.98;100156.28;2089154;28;20515;-58
2022/03/19 01:23:59;;;;;;;;;;;;;;;16.85;58.91;100151.88;2086042;28;19936;-57
2022/03/19 01:25:05;;;;;;;;;;;;;;;16.84;59.02;100145.69;2089984;28;19971;-58
2022/03/19 01:26:05;;;;;;;;;;;;;;;16.83;59.02;100144.03;2090287;28;20663;-58
2022/03/19 01:27:07;;;;;;;;;;;;;;;16.83;58.95;100148.56;2088730;28;19938;-57
2022/03/19 01:28:07;;;;;;;;;;;;;;;16.82;58.98;100149.53;2088398;28;19972;-55
2022/03/19 01:29:09;;;;;;;;;;;;;;;16.81;59.00;100140.66;2090875;28;20421;-56
2022/03/19 01:30:11;;;;;;;;;;;;;;;16.81;59.03;100155.91;2086679;28;19932;-57
2022/03/19 01:31:13;;;;;;;;;;;;;;;16.81;59.06;100153.22;2090372;28;19924;-56
2022/03/19 01:32:14;;;;;;;;;;;;;;;16.80;58.97;100148.84;2090597;28;19940;-56
2022/03/19 01:33:15;;;;;;;;;;;;;;;16.78;59.05;100145.50;2089187;28;19928;-55
2022/03/19 01:34:17;;;;;;;;;;;;;;;16.78;58.96;100137.44;2087427;28;19940;-57
2022/03/19 01:35:19;;;;;;;;;;;;;;;16.77;59.07;100144.66;2089256;28;19994;-58
2022/03/19 01:36:20;;;;;;;;;;;;;;;16.75;58.92;100136.72;2087807;28;19929;-56
2022/03/19 01:37:22;;;;;;;;;;;;;;;16.78;59.00;100150.84;2090832;28;19935;-57
2022/03/19 01:38:24;;;;;;;;;;;;;;;16.75;59.04;100136.72;2089178;28;19929;-56
2022/03/19 01:39:24;;;;;;;;;;;;;;;16.74;59.04;100140.41;2091779;28;19933;-57
2022/03/19 01:40:26;;;;;;;;;;;;;;;16.73;59.09;100146.75;2089834;28;19978;-56
2022/03/19 01:41:27;;;;;;;;;;;;;;;16.73;59.15;100136.03;2088168;28;19932;-57
2022/03/19 01:42:30;;;;;;;;;;;;;;;16.72;59.05;100137.03;2089698;28;19931;-57
2022/03/19 01:43:31;;;;;;;;;;;;;;;16.73;59.08;100140.56;2089004;28;19928;-56
2022/03/19 01:44:32;;;;;;;;;;;;;;;16.71;59.13;100139.84;2089698;28;20484;-57
2022/03/19 01:45:33;;;;;;;;;;;;;;;16.70;59.03;100133.66;2089316;28;19928;-56
2022/03/19 01:46:49;;;;;;;;;;;;;;;16.69;59.03;100131.16;2091085;28;19928;-58
2022/03/19 01:47:50;;;;;;;;;;;;;;;16.69;59.14;100131.16;2089466;28;19924;-56
2022/03/19 01:48:51;;;;;;;;;;;;;;;16.68;59.04;100132.97;2090827;28;20921;-56
2022/03/19 01:49:54;;;;;;;;;;;;;;;16.68;59.15;100138.31;2090635;28;19929;-57
2022/03/19 01:50:55;;;;;;;;;;;;;;;16.67;59.06;100131.28;2090516;28;20019;-57
2022/03/19 01:51:56;;;;;;;;;;;;;;;16.67;59.10;100138.50;2090052;28;20035;-57
2022/03/19 01:52:58;;;;;;;;;;;;;;;16.65;59.11;100133.28;2083192;28;19939;-56
2022/03/19 01:53:59;;;;;;;;;;;;;;;16.64;59.17;100123.56;2089847;28;19924;-58
2022/03/19 01:55:00;;;;;;;;;;;;;;;16.63;59.14;100129.94;2089770;28;20549;-56
2022/03/19 01:56:02;;;;;;;;;;;;;;;16.63;59.36;100135.28;2088689;28;19932;-58
2022/03/19 01:57:03;;;;;;;;;;;;;;;16.63;59.23;100132.63;2089817;28;19940;-57
2022/03/19 01:58:05;;;;;;;;;;;;;;;16.62;59.10;100138.94;2090941;28;19928;-58
2022/03/19 01:59:06;;;;;;;;;;;;;;;16.62;59.09;100136.28;2087653;28;19928;-56
2022/03/19 02:00:09;;;;;;;;;;;;;;;16.61;59.14;100129.25;2088333;28;19928;-59
2022/03/19 02:01:10;;;;;;;;;;;;;;;16.60;59.25;100132.91;2088331;28;19928;-57
2022/03/19 02:02:11;;;;;;;;;;;;;;;16.60;59.18;100132.91;2091669;28;19932;-58
2022/03/19 02:03:13;;;;;;;;;;;;;;;16.60;59.17;100132.06;2091600;28;19951;-59
2022/03/19 02:04:14;;;;;;;;;;;;;;;16.60;59.18;100124.03;2090668;28;19928;-56
2022/03/19 02:05:17;;;;;;;;;;;;;;;16.58;59.17;100134.91;2090099;28;20270;-55
2022/03/19 02:06:19;;;;;;;;;;;;;;;16.57;59.18;100127.84;2091294;28;19929;-56
2022/03/19 02:07:21;;;;;;;;;;;;;;;16.58;59.20;100124.19;2091295;28;20394;-57
2022/03/19 02:08:22;;;;;;;;;;;;;;;16.56;59.28;100136.88;2091708;28;19928;-55
2022/03/19 02:09:24;;;;;;;;;;;;;;;16.55;59.27;100135.22;2091362;28;19989;-56
2022/03/19 02:10:26;;;;;;;;;;;;;;;16.53;59.25;100127.31;2089637;28;19933;-57
2022/03/19 02:11:27;;;;;;;;;;;;;;;16.54;59.23;100136.19;2091704;28;19964;-56
2022/03/19 02:12:28;;;;;;;;;;;;;;;16.54;59.25;100130.84;2091847;28;19932;-56
2022/03/19 02:13:30;;;;;;;;;;;;;;;16.52;59.29;100127.50;2089971;28;19928;-56
2022/03/19 02:14:33;;;;;;;;;;;;;;;16.51;59.18;100117.75;2091211;28;19924;-57
2022/03/19 02:15:34;;;;;;;;;;;;;;;16.51;59.25;100118.59;2089142;28;20948;-57
2022/03/19 02:16:35;;;;;;;;;;;;;;;16.51;59.25;100120.44;2089739;28;19932;-57
2022/03/19 02:17:37;;;;;;;;;;;;;;;16.49;59.24;100120.59;2090687;28;19932;-56
2022/03/19 02:18:37;;;;;;;;;;;;;;;16.48;59.29;100123.44;2085683;28;20441;-57
2022/03/19 02:19:48;;;;;;;;;;;;;;;16.49;59.32;100122.41;2087367;28;19929;-56
2022/03/19 02:20:54;;;;;;;;;;;;;;;16.47;59.28;100113.72;2090037;28;20491;-56
2022/03/19 02:21:56;;;;;;;;;;;;;;;16.48;59.30;100112.72;2090177;28;19960;-55
2022/03/19 02:25:36;;;;;;;;;;;;;;;16.45;59.30;100110.34;2088224;28;19928;-56
2022/03/19 02:26:41;;;;;;;;;;;;;;;16.43;59.34;100110.47;2090512;28;19924;-56
2022/03/19 02:27:43;;;;;;;;;;;;;;;16.43;59.28;100121.19;2088594;28;20306;-56
2022/03/19 02:28:44;;;;;;;;;;;;;;;16.43;59.36;100120.34;2090968;28;19940;-57
2022/03/19 02:29:45;;;;;;;;;;;;;;;16.42;59.36;100113.34;2089659;28;19952;-57
2022/03/19 02:30:46;;;;;;;;;;;;;;;16.41;59.38;100116.97;2090832;28;19928;-56
2022/03/19 02:31:48;;;;;;;;;;;;;;;16.41;59.39;100128.56;2090243;28;19924;-57
2022/03/19 02:32:50;;;;;;;;;;;;;;;16.41;59.39;100117.84;2090310;28;19990;-56
2022/03/19 02:33:51;;;;;;;;;;;;;;;16.41;59.32;100119.66;2089401;28;19974;-55
2022/03/19 02:34:52;;;;;;;;;;;;;;;16.40;59.35;100113.47;2089190;28;19928;-56
2022/03/19 02:35:53;;;;;;;;;;;;;;;16.39;59.35;100116.31;2090245;28;20776;-57
2022/03/19 02:36:55;;;;;;;;;;;;;;;16.38;59.32;100125.31;2087858;28;20006;-56
2022/03/19 02:37:55;;;;;;;;;;;;;;;16.37;59.38;100113.78;2090506;28;19929;-57
2022/03/19 02:38:58;;;;;;;;;;;;;;;16.38;59.43;100128.00;2090622;28;19924;-56
2022/03/19 02:39:59;;;;;;;;;;;;;;;16.37;59.43;100115.63;2089675;28;19933;-56
2022/03/19 02:41:03;;;;;;;;;;;;;;;16.36;59.28;100114.78;2090683;28;19930;-56
2022/03/19 02:42:05;;;;;;;;;;;;;;;16.36;59.43;100120.13;2088685;28;19928;-57
2022/03/19 02:43:07;;;;;;;;;;;;;;;16.35;59.49;100112.25;2089477;28;19959;-57
2022/03/19 02:44:09;;;;;;;;;;;;;;;16.35;59.37;100117.59;2087440;28;20568;-56
2022/03/19 02:45:11;;;;;;;;;;;;;;;16.35;59.49;100125.63;2089217;28;19929;-56
2022/03/19 02:46:11;;;;;;;;;;;;;;;16.31;59.52;100123.25;2089691;28;20302;-54
2022/03/19 02:47:13;;;;;;;;;;;;;;;16.33;59.44;100116.94;2090788;28;19928;-57
2022/03/19 02:48:14;;;;;;;;;;;;;;;16.32;59.55;100116.06;2090228;28;20387;-55
2022/03/19 02:49:15;;;;;;;;;;;;;;;16.31;59.47;100122.44;2090363;28;19943;-56
2022/03/19 02:50:16;;;;;;;;;;;;;;;16.31;59.47;100117.91;2086236;28;20046;-57
2022/03/19 02:51:18;;;;;;;;;;;;;;;16.30;59.47;100116.25;2090667;28;19978;-55
2022/03/19 02:52:18;;;;;;;;;;;;;;;16.30;59.45;100115.41;2089059;28;19932;-57
2022/03/19 02:53:20;;;;;;;;;;;;;;;16.29;59.47;100116.38;2090310;28;19929;-55
2022/03/19 02:54:22;;;;;;;;;;;;;;;16.29;59.50;100114.53;2089994;28;20043;-55
2022/03/19 02:55:24;;;;;;;;;;;;;;;16.28;59.39;100109.34;2090044;28;19940;-55
2022/03/19 02:56:24;;;;;;;;;;;;;;;16.28;59.49;100112.03;2090889;28;19937;-55
2022/03/19 02:57:26;;;;;;;;;;;;;;;16.27;59.44;100115.72;2092088;28;19974;-57
2022/03/19 02:58:27;;;;;;;;;;;;;;;16.26;59.52;100117.53;2089682;28;19932;-57
2022/03/19 02:59:29;;;;;;;;;;;;;;;16.26;59.47;100119.38;2089941;28;19928;-57
2022/03/19 03:00:31;;;;;;;;;;;;;;;16.25;59.58;100112.34;2089719;28;19928;-56
2022/03/19 03:01:32;;;;;;;;;;;;;;;16.24;59.56;100111.50;2090069;28;19928;-56
2022/03/19 03:02:33;;;;;;;;;;;;;;;16.26;59.51;100119.38;2089850;28;19934;-56
2022/03/19 03:03:34;;;;;;;;;;;;;;;16.23;59.62;100104.44;2090868;28;19931;-57
2022/03/19 03:04:35;;;;;;;;;;;;;;;16.23;59.56;100109.78;2091501;28;19938;-57
2022/03/19 03:05:36;;;;;;;;;;;;;;;16.22;59.61;100118.84;2090950;28;20270;-57
2022/03/19 03:06:39;;;;;;;;;;;;;;;16.23;59.47;100114.31;2089089;28;19924;-57
2022/03/19 03:07:39;;;;;;;;;;;;;;;16.21;59.55;100117.13;2089005;28;19932;-56
2022/03/19 03:08:41;;;;;;;;;;;;;;;16.21;59.60;100105.59;2089988;28;19924;-57
2022/03/19 03:09:44;;;;;;;;;;;;;;;16.20;59.53;100104.75;2090807;28;19935;-56
2022/03/19 03:10:46;;;;;;;;;;;;;;;16.20;59.50;100109.25;2090087;28;19936;-57
2022/03/19 03:11:47;;;;;;;;;;;;;;;16.19;59.50;100103.06;2090584;28;19924;-57
2022/03/19 03:12:48;;;;;;;;;;;;;;;16.18;59.62;100101.38;2090673;28;19940;-57
2022/03/19 03:13:49;;;;;;;;;;;;;;;16.18;59.55;100108.56;2089972;28;20425;-56
2022/03/19 03:14:50;;;;;;;;;;;;;;;16.17;59.49;100105.06;2089651;28;19924;-55
2022/03/19 03:15:51;;;;;;;;;;;;;;;16.17;59.52;100105.06;2086238;28;19929;-57
2022/03/19 03:16:54;;;;;;;;;;;;;;;16.15;59.64;100104.34;2089843;28;19950;-56
2022/03/19 03:17:54;;;;;;;;;;;;;;;16.16;59.62;100103.38;2090506;28;19928;-56
2022/03/19 03:18:56;;;;;;;;;;;;;;;16.13;59.58;100106.38;2090669;28;20528;-55
2022/03/19 03:19:57;;;;;;;;;;;;;;;16.14;59.63;100100.00;2089786;28;20630;-55
2022/03/19 03:20:59;;;;;;;;;;;;;;;16.14;59.38;100100.00;2088937;28;19937;-54
2022/03/19 03:21:59;;;;;;;;;;;;;;;16.13;59.62;100103.69;2090768;28;19936;-57
2022/03/19 03:23:01;;;;;;;;;;;;;;;16.13;59.68;100108.19;2092736;28;20596;-56
2022/03/19 03:24:02;;;;;;;;;;;;;;;16.12;59.61;100109.19;2092232;28;19928;-56
2022/03/19 03:25:05;;;;;;;;;;;;;;;16.11;59.66;100100.31;2092696;28;19925;-56
2022/03/19 03:26:06;;;;;;;;;;;;;;;16.12;59.58;100111.84;2092208;28;19924;-56
2022/03/19 03:27:07;;;;;;;;;;;;;;;16.10;59.61;100112.00;2093212;28;19933;-61
2022/03/19 03:28:08;;;;;;;;;;;;;;;16.11;59.52;100108.34;2093336;28;20532;-55
2022/03/19 03:29:10;;;;;;;;;;;;;;;16.10;59.62;100103.97;2093335;28;19934;-55
2022/03/19 03:30:11;;;;;;;;;;;;;;;16.09;59.62;100105.81;2092309;28;19928;-56
2022/03/19 03:31:12;;;;;;;;;;;;;;;16.09;59.61;100113.00;2093625;28;19931;-57
2022/03/19 03:32:13;;;;;;;;;;;;;;;16.07;59.71;100110.50;2093180;28;19928;-58
2022/03/19 03:33:14;;;;;;;;;;;;;;;16.07;59.69;100118.53;2093335;28;19943;-56
2022/03/19 03:34:15;;;;;;;;;;;;;;;16.07;59.63;100110.50;2092953;28;19925;-55
2022/03/19 03:35:17;;;;;;;;;;;;;;;16.07;59.73;100106.94;2091459;28;19928;-56
2022/03/19 03:36:17;;;;;;;;;;;;;;;16.07;59.71;100109.63;2092734;28;19936;-54
2022/03/19 03:37:19;;;;;;;;;;;;;;;16.04;59.68;100105.41;2092843;28;20323;-56
2022/03/19 03:38:19;;;;;;;;;;;;;;;16.05;59.75;100108.97;2093333;28;19932;-56
2022/03/19 03:39:21;;;;;;;;;;;;;;;16.04;59.82;100108.09;2093305;28;20015;-57
2022/03/19 03:40:23;;;;;;;;;;;;;;;16.05;59.74;100106.28;2092742;28;20303;-55
2022/03/19 03:41:25;;;;;;;;;;;;;;;16.02;59.78;100102.06;2093559;28;21163;-57
2022/03/19 03:42:25;;;;;;;;;;;;;;;16.02;59.77;100114.63;2092888;28;20061;-53
2022/03/19 03:43:27;;;;;;;;;;;;;;;16.03;59.75;100108.25;2093398;28;19936;-56
2022/03/19 03:44:28;;;;;;;;;;;;;;;16.01;59.71;100107.56;2092857;28;19928;-56
2022/03/19 03:45:29;;;;;;;;;;;;;;;16.01;59.83;100110.22;2093039;28;20039;-56
2022/03/19 03:46:30;;;;;;;;;;;;;;;16.01;59.72;100113.75;2092661;28;19929;-57
2022/03/19 03:47:31;;;;;;;;;;;;;;;16.00;59.78;100117.44;2093171;28;19963;-56
2022/03/19 03:48:35;;;;;;;;;;;;;;;15.99;59.72;100110.41;2092964;28;20015;-56
2022/03/19 03:49:36;;;;;;;;;;;;;;;15.99;59.83;100107.72;2092373;28;19960;-56
2022/03/19 03:50:37;;;;;;;;;;;;;;;15.98;59.70;100108.69;2092141;28;20396;-56
2022/03/19 03:51:39;;;;;;;;;;;;;;;15.98;59.79;100106.03;2093096;28;19995;-56
2022/03/19 03:52:39;;;;;;;;;;;;;;;15.98;59.76;100108.69;2083764;28;20071;-57
2022/03/19 03:53:41;;;;;;;;;;;;;;;15.97;59.82;100112.38;2092207;28;19928;-57
2022/03/19 03:54:42;;;;;;;;;;;;;;;15.97;59.76;100106.19;2092192;28;20019;-55
2022/03/19 03:55:45;;;;;;;;;;;;;;;15.97;59.71;100107.03;2092056;28;19928;-56
2022/03/19 03:56:45;;;;;;;;;;;;;;;15.95;59.82;100100.97;2092095;28;20011;-54
2022/03/19 03:57:47;;;;;;;;;;;;;;;15.97;59.73;100108.88;2092507;28;20770;-56
2022/03/19 03:58:49;;;;;;;;;;;;;;;15.95;59.77;100095.63;2090905;28;19985;-57
2022/03/19 03:59:50;;;;;;;;;;;;;;;15.95;59.83;100102.81;2092047;28;19928;-57
2022/03/19 04:00:52;;;;;;;;;;;;;;;15.94;59.83;100109.16;2092918;28;19929;-56
2022/03/19 04:01:53;;;;;;;;;;;;;;;15.94;59.74;100095.78;2091276;28;19924;-56
2022/03/19 04:02:54;;;;;;;;;;;;;;;15.94;59.68;100098.47;2093221;28;19934;-56
2022/03/19 04:03:55;;;;;;;;;;;;;;;15.93;59.84;100097.59;2093309;28;19929;-56
2022/03/19 04:04:56;;;;;;;;;;;;;;;15.92;59.79;100100.44;2092693;28;19934;-55
2022/03/19 04:05:57;;;;;;;;;;;;;;;15.93;59.81;100096.75;2090970;28;19958;-57
2022/03/19 04:06:59;;;;;;;;;;;;;;;15.92;59.81;100097.78;2091002;28;19932;-56
2022/03/19 04:07:59;;;;;;;;;;;;;;;15.91;59.57;100101.41;2092407;28;19925;-55
2022/03/19 04:09:01;;;;;;;;;;;;;;;15.90;59.85;100103.25;2092963;28;19978;-57
2022/03/19 04:10:02;;;;;;;;;;;;;;;15.89;59.80;100106.94;2090325;28;19928;-55
2022/03/19 04:11:05;;;;;;;;;;;;;;;15.89;59.88;100100.75;2092557;28;19959;-57
2022/03/19 04:12:06;;;;;;;;;;;;;;;15.89;59.75;100106.94;2091672;28;19935;-57
2022/03/19 04:13:07;;;;;;;;;;;;;;;15.89;59.84;100095.41;2091509;28;19978;-57
2022/03/19 04:14:08;;;;;;;;;;;;;;;15.87;59.89;100095.53;2092500;28;19975;-57
2022/03/19 04:15:10;;;;;;;;;;;;;;;15.86;59.87;100091.19;2091941;28;19924;-56
2022/03/19 04:16:10;;;;;;;;;;;;;;;15.86;59.89;100086.66;2092784;28;19928;-57
2022/03/19 04:17:12;;;;;;;;;;;;;;;15.86;59.87;100097.38;2092557;28;19929;-57
2022/03/19 04:18:13;;;;;;;;;;;;;;;15.86;59.76;100085.84;2092435;28;19943;-57
2022/03/19 04:19:14;;;;;;;;;;;;;;;15.84;59.80;100088.66;2092680;28;20469;-57
2022/03/19 04:20:16;;;;;;;;;;;;;;;15.84;59.80;100091.31;2092216;28;19931;-57
2022/03/19 04:21:17;;;;;;;;;;;;;;;15.84;59.85;100085.97;2092861;28;19968;-57
2022/03/19 04:22:18;;;;;;;;;;;;;;;15.83;59.75;100086.97;2091287;28;19925;-58
2022/03/19 04:23:20;;;;;;;;;;;;;;;15.83;59.82;100086.97;2089251;28;20159;-57
2022/03/19 04:24:20;;;;;;;;;;;;;;;15.82;59.77;100090.66;2086166;28;20728;-56
2022/03/19 04:25:23;;;;;;;;;;;;;;;15.82;59.94;100087.09;2091806;28;19931;-58
2022/03/19 04:26:25;;;;;;;;;;;;;;;15.82;59.90;100089.78;2092286;28;19970;-56
2022/03/19 04:27:26;;;;;;;;;;;;;;;15.81;59.90;100088.94;2092587;28;19983;-56
2022/03/19 04:28:27;;;;;;;;;;;;;;;15.80;59.90;100087.28;2092564;28;19939;-57
2022/03/19 04:29:28;;;;;;;;;;;;;;;15.80;59.88;100089.94;2091085;28;19974;-57
2022/03/19 04:30:29;;;;;;;;;;;;;;;15.79;59.87;100090.91;2090332;28;19932;-57
2022/03/19 04:31:31;;;;;;;;;;;;;;;15.79;59.91;100098.94;2089117;28;19928;-57
2022/03/19 04:32:31;;;;;;;;;;;;;;;15.79;59.91;100093.59;2090580;28;19972;-56
2022/03/19 04:33:33;;;;;;;;;;;;;;;15.79;59.86;100096.28;2083488;28;19929;-57
2022/03/19 04:34:33;;;;;;;;;;;;;;;15.78;59.95;100088.41;2090386;28;19940;-56
2022/03/19 04:36:54;;;;;;;;;;;;;;;15.77;59.95;100082.22;2090364;28;19928;-57
2022/03/19 04:37:55;;;;;;;;;;;;;;;15.77;59.92;100084.91;2090447;28;19935;-57
2022/03/19 04:38:56;;;;;;;;;;;;;;;15.77;59.90;100078.72;2087540;28;20517;-57
2022/03/19 04:39:57;;;;;;;;;;;;;;;15.76;59.97;100080.53;2089403;28;19928;-58
2022/03/19 04:40:59;;;;;;;;;;;;;;;15.77;59.84;100081.38;2090085;28;19928;-56
2022/03/19 04:42:01;;;;;;;;;;;;;;;15.75;60.15;100086.88;2090282;28;20479;-56
2022/03/19 04:43:03;;;;;;;;;;;;;;;15.75;59.97;100086.88;2089998;28;19925;-55
2022/03/19 04:44:05;;;;;;;;;;;;;;;15.75;59.92;100080.69;2091151;28;20015;-57
2022/03/19 04:45:06;;;;;;;;;;;;;;;15.74;59.87;100077.19;2089990;28;19929;-56
2022/03/19 04:46:08;;;;;;;;;;;;;;;15.74;59.98;100074.50;2088614;28;20662;-58
2022/03/19 04:47:08;;;;;;;;;;;;;;;15.73;59.91;100070.13;2091393;28;19924;-56
2022/03/19 04:48:11;;;;;;;;;;;;;;;15.74;59.92;100077.19;2089741;28;20585;-57
2022/03/19 04:49:11;;;;;;;;;;;;;;;15.73;59.90;100066.63;2090867;28;19933;-56
2022/03/19 04:50:13;;;;;;;;;;;;;;;15.72;59.91;100065.78;2090398;28;19975;-59
2022/03/19 04:51:15;;;;;;;;;;;;;;;15.72;59.90;100068.47;2091769;28;19928;-57
2022/03/19 04:52:15;;;;;;;;;;;;;;;15.71;59.93;100063.25;2090852;28;19933;-57
2022/03/19 04:53:17;;;;;;;;;;;;;;;15.71;60.00;100063.25;2088889;28;19936;-57
2022/03/19 04:54:18;;;;;;;;;;;;;;;15.71;59.95;100058.75;2091689;28;19924;-56
2022/03/19 04:55:19;;;;;;;;;;;;;;;15.70;59.85;100062.41;2091313;28;19933;-56
2022/03/19 04:56:20;;;;;;;;;;;;;;;15.71;60.02;100060.56;2090581;28;19935;-57
2022/03/19 04:57:23;;;;;;;;;;;;;;;15.69;59.94;100058.06;2088962;28;19944;-57
2022/03/19 04:58:24;;;;;;;;;;;;;;;15.69;60.00;100059.91;2091426;28;20031;-57
2022/03/19 04:59:25;;;;;;;;;;;;;;;15.69;59.95;100060.72;2091412;28;20613;-57
2022/03/19 05:00:26;;;;;;;;;;;;;;;15.68;59.96;100059.03;2089595;28;19924;-57
2022/03/19 05:01:28;;;;;;;;;;;;;;;15.68;59.99;100059.03;2092188;28;19932;-57
2022/03/19 05:02:28;;;;;;;;;;;;;;;15.67;59.88;100061.84;2090901;28;20043;-56
2022/03/19 05:03:30;;;;;;;;;;;;;;;15.67;59.95;100059.16;2092449;28;19929;-57
2022/03/19 05:04:30;;;;;;;;;;;;;;;15.67;59.97;100065.34;2091309;28;19924;-57
2022/03/19 05:05:32;;;;;;;;;;;;;;;15.67;59.89;100067.19;2091380;28;20914;-56
2022/03/19 05:06:33;;;;;;;;;;;;;;;15.66;60.01;100066.34;2090970;28;19935;-57
2022/03/19 05:07:35;;;;;;;;;;;;;;;15.66;59.91;100071.69;2092786;28;19967;-57
2022/03/19 05:08:37;;;;;;;;;;;;;;;15.66;60.01;100069.03;2091213;28;19928;-55
2022/03/19 05:11:15;;;;;;;;;;;;;;;15.66;60.01;100071.69;2091142;28;19928;-56
2022/03/19 05:12:29;;;;;;;;;;;;;;;15.64;59.91;100071.00;2089519;28;19990;-56
2022/03/19 05:13:30;;;;;;;;;;;;;;;15.63;60.00;100075.53;2091574;28;20540;-57
2022/03/19 05:14:31;;;;;;;;;;;;;;;15.64;59.94;100082.53;2089873;28;19932;-56
2022/03/19 05:15:32;;;;;;;;;;;;;;;15.63;60.00;100080.03;2091501;28;20960;-57
2022/03/19 05:16:33;;;;;;;;;;;;;;;15.62;59.93;100089.84;2091317;28;19928;-55
2022/03/19 05:17:35;;;;;;;;;;;;;;;15.63;60.04;100080.03;2090078;28;19931;-55
2022/03/19 05:18:35;;;;;;;;;;;;;;;15.62;59.92;100084.50;2088125;28;20461;-55
2022/03/19 05:19:37;;;;;;;;;;;;;;;15.61;60.02;100077.50;2091069;28;19929;-56
2022/03/19 05:20:37;;;;;;;;;;;;;;;15.62;59.97;100094.38;2089887;28;20031;-56
2022/03/19 05:21:39;;;;;;;;;;;;;;;15.61;59.97;100084.69;2090705;28;20841;-57